Terminal Aerodrome Forecast
Issued by NWS Wakefield, VA

Home | Current Version | Previous Version | Text Only | Print | Product List | Glossary On
Versions: 1 2 3 4 5 6 7 8 9 10 11 12 13
722
FTUS41 KAKQ 271744
TAFECG
TAF
KECG 271744Z 2718/2818 05010KT P6SM SCT040
     FM280600 04005KT P6SM SCT015
     FM280800 04005KT P6SM BKN015
     FM281400 05009KT P6SM BKN040=

USA.gov is the U.S. government's official web portal to all federal, state and local government web resources and services.